createdAt,value
2018-04-07T00:00:39.699Z,4.60
2018-04-07T00:05:30.597Z,4.77
2018-04-07T00:10:22.241Z,7.63
2018-04-07T00:15:13.961Z,4.80
2018-04-07T00:20:04.864Z,4.67
2018-04-07T00:24:55.778Z,9.53
2018-04-07T00:29:54.401Z,4.63
2018-04-07T00:34:46.045Z,7.17
2018-04-07T00:39:36.936Z,4.23
2018-04-07T00:44:27.828Z,5.20
2018-04-07T00:49:18.729Z,5.40
2018-04-07T00:54:09.629Z,5.47
2018-04-07T00:59:00.525Z,4.40
2018-04-07T01:03:52.905Z,5.33
2018-04-07T01:08:43.801Z,3.13
2018-04-07T01:13:34.697Z,3.50
2018-04-07T01:18:25.625Z,4.07
2018-04-07T01:23:16.533Z,6.30
2018-04-07T01:28:07.434Z,2.97
2018-04-07T01:32:58.334Z,3.80
2018-04-07T01:37:50.725Z,4.03
2018-04-07T01:42:42.374Z,3.50
2018-04-07T01:47:34.026Z,4.07
2018-04-07T01:52:25.672Z,3.73
2018-04-07T01:57:16.573Z,4.40
2018-04-07T02:02:07.498Z,3.27
2018-04-07T02:06:58.397Z,5.70
2018-04-07T02:11:49.309Z,3.50
2018-04-07T02:16:40.949Z,4.00
2018-04-07T02:21:31.845Z,3.27
2018-04-07T02:26:22.777Z,2.80
2018-04-07T02:31:13.686Z,5.80
2018-04-07T02:36:04.602Z,4.63
2018-04-07T02:40:55.507Z,4.13
2018-04-07T02:45:46.410Z,5.63
2018-04-07T02:50:37.318Z,3.97
2018-04-07T02:55:28.969Z,4.73
2018-04-07T03:00:19.867Z,5.30
2018-04-07T03:05:10.770Z,3.20
2018-04-07T03:10:01.661Z,2.63
2018-04-07T03:14:52.562Z,3.43
2018-04-07T03:19:43.461Z,3.53
2018-04-07T03:24:34.352Z,4.33
2018-04-07T03:29:25.265Z,4.10
2018-04-07T03:34:16.901Z,5.23
2018-04-07T03:39:07.814Z,5.03
2018-04-07T03:43:58.757Z,8.50
2018-04-07T03:48:49.649Z,6.87
2018-04-07T03:53:40.565Z,9.20
2018-04-07T03:58:32.205Z,5.87
2018-04-07T04:03:23.857Z,5.80
2018-04-07T04:08:15.484Z,6.10
2018-04-07T04:13:06.386Z,6.30
2018-04-07T04:17:57.285Z,10.27
2018-04-07T04:22:48.921Z,4.53
2018-04-07T04:27:40.561Z,6.47
2018-04-07T04:32:31.458Z,9.53
2018-04-07T04:37:22.358Z,5.73
2018-04-07T04:42:13.256Z,5.17
2018-04-07T04:47:04.162Z,9.00
2018-04-07T04:51:55.076Z,3.33
2018-04-07T04:56:45.977Z,7.53
2018-04-07T05:01:37.638Z,9.40
2018-04-07T05:06:29.278Z,11.17
2018-04-07T05:11:20.913Z,7.97
2018-04-07T05:16:11.822Z,6.97
2018-04-07T05:21:02.722Z,5.50
2018-04-07T05:25:53.617Z,7.70
2018-04-07T05:30:44.514Z,4.27
2018-04-07T05:35:35.405Z,6.00
2018-04-07T05:40:26.509Z,6.67
2018-04-07T05:45:17.405Z,5.00
2018-04-07T05:50:09.045Z,8.03
2018-04-07T05:55:00.689Z,14.07
2018-04-07T05:59:51.584Z,10.80
2018-04-07T06:04:42.644Z,6.80
2018-04-07T06:09:33.637Z,8.63
2018-04-07T06:14:24.566Z,8.70
2018-04-07T06:19:15.461Z,6.10
2018-04-07T06:24:07.103Z,7.53
2018-04-07T06:28:58.072Z,6.37
2018-04-07T06:33:48.973Z,9.77
2018-04-07T06:38:39.877Z,6.30
2018-04-07T06:43:30.773Z,10.00
2018-04-07T06:48:22.409Z,4.97
2018-04-07T06:53:13.345Z,4.53
2018-04-07T06:58:04.237Z,6.93
2018-04-07T07:02:55.137Z,4.97
2018-04-07T07:07:46.053Z,4.63
2018-04-07T07:12:36.945Z,3.67
2018-04-07T07:17:27.844Z,3.20
2018-04-07T07:22:18.746Z,4.30
2018-04-07T07:27:09.650Z,3.03
2018-04-07T07:32:01.291Z,2.83
2018-04-07T07:36:52.946Z,2.90
2018-04-07T07:41:44.593Z,2.70
2018-04-07T07:46:35.490Z,3.27
2018-04-07T07:51:26.388Z,3.40
2018-04-07T07:56:17.317Z,5.70
2018-04-07T08:01:08.221Z,3.23
2018-04-07T08:05:59.872Z,6.60
2018-04-07T08:10:50.785Z,4.83
2018-04-07T08:15:41.690Z,4.53
2018-04-07T08:20:32.590Z,3.73
2018-04-07T08:25:23.488Z,4.13
2018-04-07T08:30:14.376Z,9.00
2018-04-07T08:35:05.318Z,5.30
2018-04-07T08:39:56.209Z,6.23
2018-04-07T08:44:47.849Z,4.60
2018-04-07T08:54:57.288Z,11.43
2018-04-07T08:59:48.197Z,4.90
2018-04-07T09:04:39.855Z,4.13
2018-04-07T09:09:30.749Z,4.87
2018-04-07T09:14:22.385Z,5.03
2018-04-07T09:19:14.033Z,5.37
2018-04-07T09:24:05.893Z,4.90
2018-04-07T09:28:57.534Z,11.07
2018-04-07T09:33:49.241Z,5.27
2018-04-07T09:38:40.163Z,4.63
2018-04-07T09:43:31.077Z,5.33
2018-04-07T09:48:22.018Z,5.13
2018-04-07T09:53:12.921Z,5.33
2018-04-07T09:58:03.849Z,5.07
2018-04-07T10:03:00.868Z,5.00
2018-04-07T10:07:52.521Z,4.93
2018-04-07T10:12:44.293Z,4.50
2018-04-07T10:17:35.990Z,4.00
2018-04-07T10:22:26.925Z,4.90
2018-04-07T10:27:17.929Z,4.60
2018-04-07T10:32:08.863Z,4.07
2018-04-07T10:36:59.893Z,4.27
2018-04-07T10:41:50.909Z,5.50
2018-04-07T10:46:41.833Z,5.80
2018-04-07T10:51:32.812Z,4.90
2018-04-07T10:56:23.721Z,4.03
2018-04-07T11:01:15.440Z,5.07
2018-04-07T11:06:06.393Z,4.27
2018-04-07T11:10:57.265Z,4.20
2018-04-07T11:15:48.198Z,4.97
2018-04-07T11:20:39.106Z,5.57
2018-04-07T11:25:30.038Z,5.83
2018-04-07T11:30:20.970Z,10.17
2018-04-07T11:35:11.914Z,5.87
2018-04-07T11:40:02.833Z,5.50
2018-04-07T11:44:53.754Z,6.20
2018-04-07T11:49:44.678Z,6.07
2018-04-07T11:54:35.637Z,8.83
2018-04-07T11:59:26.541Z,5.37
2018-04-07T12:04:17.480Z,5.17
2018-04-07T12:09:08.381Z,7.97
2018-04-07T12:13:59.285Z,6.00
2018-04-07T12:18:50.218Z,5.93
2018-04-07T12:23:41.848Z,6.80
2018-04-07T12:28:32.754Z,6.00
2018-04-07T12:33:23.673Z,5.33
2018-04-07T12:38:15.310Z,4.50
2018-04-07T12:43:06.246Z,3.63
2018-04-07T12:47:57.897Z,4.73
2018-04-07T12:52:49.541Z,3.87
2018-04-07T12:57:41.193Z,3.93
2018-04-07T13:02:32.858Z,3.53
2018-04-07T13:07:23.769Z,4.17
2018-04-07T13:12:15.442Z,3.50
2018-04-07T13:17:06.374Z,4.40
2018-04-07T13:21:57.269Z,3.80
2018-04-07T13:26:48.178Z,5.80
2018-04-07T13:31:39.096Z,5.23
2018-04-07T13:36:30.028Z,7.03
2018-04-07T13:41:20.929Z,5.30
2018-04-07T13:46:12.180Z,7.60
2018-04-07T13:51:03.093Z,4.70
2018-04-07T13:55:53.997Z,5.50
2018-04-07T14:00:44.929Z,4.70
2018-04-07T14:05:35.834Z,5.07
2018-04-07T14:10:26.733Z,6.13
2018-04-07T14:15:18.382Z,5.20
2018-04-07T14:20:10.026Z,4.80
2018-04-07T14:25:01.669Z,4.70
2018-04-07T14:29:53.305Z,5.00
2018-04-07T14:34:44.201Z,5.00
2018-04-07T14:39:35.097Z,5.70
2018-04-07T14:44:26.066Z,5.47
2018-04-07T14:49:16.965Z,4.90
2018-04-07T14:54:07.870Z,6.93
2018-04-07T14:58:59.512Z,8.23
2018-04-07T15:03:51.200Z,4.63
2018-04-07T15:08:42.097Z,4.73
2018-04-07T15:13:33.037Z,9.70
2018-04-07T15:18:23.918Z,6.00
2018-04-07T15:23:15.648Z,4.57
2018-04-07T15:28:06.548Z,5.53
2018-04-07T15:32:57.462Z,5.57
2018-04-07T15:37:48.357Z,4.50
2018-04-07T15:42:40.009Z,4.80
2018-04-07T15:47:31.645Z,5.10
2018-04-07T15:52:23.294Z,4.20
2018-04-07T15:57:14.987Z,5.30
2018-04-07T16:02:05.930Z,4.80
2018-04-07T16:06:56.853Z,5.90
2018-04-07T16:11:47.761Z,5.17
2018-04-07T16:16:38.788Z,5.80
2018-04-07T16:21:29.728Z,5.43
2018-04-07T16:26:20.654Z,5.73
2018-04-07T16:31:11.557Z,4.77
2018-04-07T16:36:02.474Z,11.10
2018-04-07T16:40:53.381Z,6.30
2018-04-07T16:45:45.029Z,6.43
2018-04-07T16:50:36.795Z,5.20
2018-04-07T16:55:28.441Z,5.17
2018-04-07T17:00:19.340Z,5.10
2018-04-07T17:05:10.240Z,4.50
2018-04-07T17:10:01.153Z,5.30
2018-04-07T17:14:52.172Z,11.07
2018-04-07T17:19:43.065Z,5.20
2018-04-07T17:24:33.977Z,6.40
2018-04-07T17:29:24.885Z,4.90
2018-04-07T17:34:15.801Z,6.57
2018-04-07T17:39:07.010Z,5.43
2018-04-07T17:43:58.657Z,4.97
2018-04-07T17:48:50.337Z,4.03
2018-04-07T17:53:41.253Z,5.80
2018-04-07T17:58:32.165Z,5.10
2018-04-07T18:03:23.072Z,5.20
2018-04-07T18:08:13.977Z,4.47
2018-04-07T18:13:04.889Z,4.53
2018-04-07T18:17:55.792Z,5.30
2018-04-07T18:22:46.721Z,5.27
2018-04-07T18:27:37.625Z,5.40
2018-04-07T18:32:29.273Z,10.90
2018-04-07T18:37:20.960Z,6.00
2018-04-07T18:42:11.885Z,6.57
2018-04-07T18:47:02.797Z,5.43
2018-04-07T18:51:54.454Z,5.40
2018-04-07T18:56:45.479Z,6.03
2018-04-07T19:01:36.397Z,5.87
2018-04-07T19:06:27.309Z,5.60
2018-04-07T19:11:18.961Z,5.37
2018-04-07T19:16:09.869Z,4.87
2018-04-07T19:21:01.520Z,6.27
2018-04-07T19:25:53.181Z,6.03
2018-04-07T19:30:44.840Z,6.00
2018-04-07T19:35:35.760Z,6.17
2018-04-07T19:40:26.665Z,5.63
2018-04-07T19:45:18.309Z,6.37
2018-04-07T19:50:09.223Z,6.20
2018-04-07T19:55:00.130Z,6.50
2018-04-07T19:59:51.054Z,6.27
2018-04-07T20:04:41.950Z,6.63
2018-04-07T20:09:32.853Z,6.53
2018-04-07T20:14:23.749Z,6.40
2018-04-07T20:19:14.649Z,6.90
2018-04-07T20:24:06.360Z,7.83
2018-04-07T20:28:57.260Z,7.37
2018-04-07T20:33:48.174Z,7.37
2018-04-07T20:38:39.085Z,10.33
2018-04-07T20:43:30.001Z,13.10
2018-04-07T20:48:20.928Z,11.47
2018-04-07T20:53:11.830Z,8.47
2018-04-07T20:58:02.736Z,10.30
2018-04-07T21:02:53.641Z,10.87
2018-04-07T21:07:44.553Z,10.30
2018-04-07T21:12:36.204Z,11.67
2018-04-07T21:17:27.109Z,10.47
2018-04-07T21:22:18.750Z,17.60
2018-04-07T21:27:10.389Z,16.00
2018-04-07T21:32:02.039Z,13.63
2018-04-07T21:36:53.683Z,16.90
2018-04-07T21:41:44.581Z,10.70
2018-04-07T21:46:35.501Z,14.40
2018-04-07T21:51:26.413Z,18.93
2018-04-07T21:56:17.313Z,15.50
2018-04-07T22:01:08.226Z,16.17
2018-04-07T22:05:59.125Z,19.40
2018-04-07T22:10:50.038Z,13.40
2018-04-07T22:15:40.965Z,12.37
2018-04-07T22:20:31.868Z,17.43
2018-04-07T22:25:22.778Z,13.10
2018-04-07T22:30:13.731Z,13.60
2018-04-07T22:35:04.601Z,13.70
2018-04-07T22:39:55.500Z,12.50
2018-04-07T22:44:47.166Z,15.07
2018-04-07T22:49:38.073Z,12.70
2018-04-07T22:54:29.721Z,12.17
2018-04-07T22:59:21.365Z,15.87
2018-04-07T23:04:13.021Z,13.90
2018-04-07T23:09:04.656Z,12.83
2018-04-07T23:13:56.293Z,14.63
2018-04-07T23:18:47.945Z,12.80
2018-04-07T23:23:39.595Z,11.93
2018-04-07T23:28:30.501Z,10.10
2018-04-07T23:33:22.157Z,11.63
2018-04-07T23:38:13.806Z,13.40
2018-04-07T23:43:04.717Z,12.20
2018-04-07T23:47:56.357Z,15.67
2018-04-07T23:52:47.993Z,10.57
2018-04-07T23:57:38.891Z,10.80
